Oklahoma City/Tinker AFB, Oklahoma
Current Conditions -  °F | °C
As of 11:58 AM on Saturday 25 Oct 2014 (Local Time) from KTIK Reporting Station
Clear Clear  
Wind Chill: 75°   Ceiling: Unl
Heat Index: 75°   Visibility: 10mi
Dew Point: 61°   Wind: 7mph
Humidity: 61%   Direction: 210°SSW
Pressure: 30.1"   Gusts: NA
Location:  35.42°N, 97.38°W
Report Text: KTIK 251658Z AUTO 21006KT 10SM CLR 24/16 A3010 RMK AO2 SLP190 T02380159 $
Loading
Personal Weather Stations






























Interactive Weather Map
Tropical Storm Tracking
New forecast layout! Learn more

10-Day Weather Forecast

Advertisements
Track Severe Weather on mobile